Steubenville, OH

9:32 AM EST on February 28, 2015 (GMT -0500)
Sunset Gardens | Change Station
CLOSE
Current Station
Personal Weather Station
Location: Wintersville, OH
Elevation: 1150 ft
Nearby Weather Stations

Elev 1150 ft 40.38 °N, 80.72 °W | Updated 2 minutes ago

Partly Cloudy
Partly Cloudy
14.7 °F
Feels Like 15 °F
N
1.0
Wind Variable Wind from ENE
Gusts 1.0 mph

Today
High -- | Low -- °F
--% Chance of Precip.
Yesterday
High -- | Low -- °F
Precip. -- in
6:58 AM 6:13 PM
Waxing Gibbous, 78% visible
Pressure 30.82 in
Visibility 10.0 miles
Clouds Clear
Windchill 15 °F
Dew Point 5 °F
Humidity 64%
Rainfall 0.00 in
Snow Depth Not available.
UV 1 out of 12
Pollen .50 out of 12
Air Quality Not available.
Flu Activity Not available.
METAR KHLG 281353Z AUTO 11004KT 10SM CLR M13/M19 A3073 RMK AO2 SLP435 T11281189

More Conditions Fewer Conditions

Pressure 30.82 in
Visibility 10.0 miles
Clouds Clear
Windchill 15 °F
Dew Point 5 °F
Humidity 64%
Rainfall 0.00 in
Snow Depth Not available.
UV 1 out of 12
Pollen .50 out of 12
Air Quality Not available.
Flu Activity Not available.
METAR KHLG 281353Z AUTO 11004KT 10SM CLR M13/M19 A3073 RMK AO2 SLP435 T11281189

More Conditions Fewer Conditions

10-Day Weather Forecast

Almanac

Astronomy

Feb. 28, 2015 Rise Set
Actual Time
Civil Twilight
Nautical Twilight
Astronomical Twilight
Moon
Length of Visible Light
Length of Day
Tomorrow will be .
, % of the Moon is Illuminated

Today's Extremes

State Highs State Lows

Community

WunderPhotos

Upload Photos

1,801,022 photos uploaded!

WunderBlogs® & News

Nearby

Air Quality

  Air Quality AQ Index Pollutant
Not available.

Snow Depth

Station Depth Elevation

Earthquake Activity

City Distance Mag. Time & Date
Minimum magnitude displayed is 2.5.

Coastal Water Temperatures

Place Temperature

Nearby Weather Stations